createdAt,value
2018-07-20T00:03:51.165Z,44.00
2018-07-20T00:06:19.392Z,44.10
2018-07-20T00:11:15.697Z,45.30
2018-07-20T00:13:43.991Z,45.60
2018-07-20T00:16:12.259Z,45.60
2018-07-20T00:18:40.942Z,45.30
2018-07-20T00:21:09.234Z,45.20
2018-07-20T00:23:37.507Z,45.20
2018-07-20T00:26:06.828Z,45.00
2018-07-20T00:28:35.368Z,45.00
2018-07-20T00:31:03.770Z,45.00
2018-07-20T00:33:32.053Z,44.90
2018-07-20T00:36:00.310Z,45.00
2018-07-20T00:38:28.602Z,45.30
2018-07-20T00:40:56.915Z,45.20
2018-07-20T00:43:25.334Z,45.20
2018-07-20T00:45:53.651Z,45.30
2018-07-20T00:48:21.919Z,45.50
2018-07-20T00:50:50.182Z,45.60
2018-07-20T00:53:18.475Z,45.80
2018-07-20T00:55:46.727Z,45.90
2018-07-20T00:58:15.027Z,46.20
2018-07-20T01:00:43.280Z,46.70
2018-07-20T01:03:12.608Z,46.80
2018-07-20T01:05:41.048Z,47.00
2018-07-20T01:08:09.314Z,47.10
2018-07-20T01:10:37.538Z,47.60
2018-07-20T01:13:05.885Z,47.90
2018-07-20T01:15:34.191Z,48.10
2018-07-20T01:18:02.467Z,48.80
2018-07-20T01:20:30.726Z,49.30
2018-07-20T01:22:59.020Z,49.70
2018-07-20T01:25:27.299Z,50.20
2018-07-20T01:27:55.628Z,50.40
2018-07-20T01:30:23.869Z,50.50
2018-07-20T01:35:20.214Z,51.20
2018-07-20T01:37:48.478Z,51.40
2018-07-20T01:40:16.818Z,51.60
2018-07-20T01:42:45.095Z,51.50
2018-07-20T01:45:13.363Z,51.40
2018-07-20T01:47:41.686Z,51.30
2018-07-20T01:50:09.963Z,51.30
2018-07-20T01:52:38.195Z,51.20
2018-07-20T01:55:06.452Z,51.20
2018-07-20T01:57:34.794Z,51.00
2018-07-20T02:00:03.377Z,51.40
2018-07-20T02:02:31.640Z,51.50
2018-07-20T02:04:59.918Z,51.30
2018-07-20T02:07:28.158Z,50.50
2018-07-20T02:09:56.434Z,50.20
2018-07-20T02:12:24.691Z,50.80
2018-07-20T02:14:52.968Z,50.60
2018-07-20T02:17:21.279Z,50.60
2018-07-20T02:19:49.882Z,51.00
2018-07-20T02:22:18.172Z,51.30
2018-07-20T02:24:46.435Z,51.40
2018-07-20T02:27:14.655Z,51.50
2018-07-20T02:29:42.855Z,51.30
2018-07-20T02:32:11.066Z,51.10
2018-07-20T02:34:39.358Z,50.90
2018-07-20T02:37:07.711Z,51.30
2018-07-20T02:39:35.987Z,51.50
2018-07-20T02:42:04.343Z,52.00
2018-07-20T02:44:32.640Z,52.20
2018-07-20T02:47:00.862Z,52.30
2018-07-20T02:49:29.134Z,52.30
2018-07-20T02:51:57.417Z,52.40
2018-07-20T02:54:25.795Z,52.50
2018-07-20T02:56:54.092Z,53.00
2018-07-20T02:59:22.384Z,53.30
2018-07-20T03:01:50.599Z,53.70
2018-07-20T03:04:18.859Z,54.30
2018-07-20T03:06:47.071Z,54.40
2018-07-20T03:09:15.351Z,54.50
2018-07-20T03:11:44.217Z,54.40
2018-07-20T03:14:12.476Z,54.30
2018-07-20T03:16:40.706Z,54.10
2018-07-20T03:19:09.344Z,53.90
2018-07-20T03:21:37.550Z,54.00
2018-07-20T03:24:06.353Z,54.00
2018-07-20T03:26:34.584Z,54.30
2018-07-20T03:29:02.834Z,54.30
2018-07-20T03:31:31.080Z,54.80
2018-07-20T03:33:59.439Z,55.10
2018-07-20T03:36:27.630Z,55.70
2018-07-20T03:38:55.911Z,56.60
2018-07-20T03:41:24.147Z,57.10
2018-07-20T03:43:52.414Z,57.50
2018-07-20T03:46:21.646Z,57.60
2018-07-20T03:48:49.866Z,57.40
2018-07-20T03:51:18.197Z,57.30
2018-07-20T03:53:46.560Z,57.20
2018-07-20T03:56:15.075Z,57.30
2018-07-20T03:58:43.331Z,57.40
2018-07-20T04:01:11.599Z,57.30
2018-07-20T04:03:39.906Z,57.10
2018-07-20T04:06:08.330Z,56.60
2018-07-20T04:11:04.715Z,57.40
2018-07-20T04:13:33.032Z,56.70
2018-07-20T04:16:01.272Z,57.40
2018-07-20T04:18:29.536Z,57.30
2018-07-20T04:20:57.812Z,57.10
2018-07-20T04:23:26.082Z,56.80
2018-07-20T04:25:54.308Z,56.40
2018-07-20T04:28:22.542Z,56.60
2018-07-20T04:30:50.813Z,56.40
2018-07-20T04:33:19.139Z,56.00
2018-07-20T04:35:47.386Z,55.60
2018-07-20T04:38:15.659Z,55.30
2018-07-20T04:40:43.915Z,55.30
2018-07-20T04:45:40.182Z,55.20
2018-07-20T04:48:08.484Z,54.80
2018-07-20T04:50:37.586Z,54.90
2018-07-20T04:53:05.809Z,54.70
2018-07-20T04:55:38.750Z,54.80
2018-07-20T04:58:06.967Z,54.60
2018-07-20T05:00:35.246Z,55.00
2018-07-20T05:03:03.502Z,55.20
2018-07-20T05:05:31.799Z,54.90
2018-07-20T05:08:00.102Z,54.40
2018-07-20T05:10:28.563Z,54.50
2018-07-20T05:12:56.838Z,54.50
2018-07-20T05:15:25.870Z,54.50
2018-07-20T05:17:54.954Z,54.70
2018-07-20T05:20:24.231Z,54.30
2018-07-20T05:22:52.555Z,53.30
2018-07-20T05:25:20.977Z,52.00
2018-07-20T05:27:49.265Z,51.20
2018-07-20T05:30:17.620Z,50.60
2018-07-20T05:32:46.366Z,50.30
2018-07-20T05:35:14.858Z,48.80
2018-07-20T05:37:43.201Z,47.90
2018-07-20T05:40:11.575Z,47.20
2018-07-20T05:42:39.903Z,45.50
2018-07-20T05:45:08.466Z,43.50
2018-07-20T05:47:36.740Z,42.90
2018-07-20T05:50:06.025Z,41.60
2018-07-20T05:52:34.402Z,41.20
2018-07-20T05:55:02.719Z,39.80
2018-07-20T05:57:30.943Z,38.80
2018-07-20T05:59:59.246Z,38.90
2018-07-20T06:02:27.468Z,37.30
2018-07-20T06:04:55.746Z,36.10
2018-07-20T06:07:23.999Z,35.50
2018-07-20T06:09:52.362Z,35.60
2018-07-20T06:12:20.681Z,34.80
2018-07-20T06:14:49.292Z,33.60
2018-07-20T06:17:17.607Z,33.20
2018-07-20T06:19:46.943Z,33.30
2018-07-20T06:22:15.298Z,33.00
2018-07-20T06:24:44.062Z,32.80
2018-07-20T06:27:12.442Z,32.30
2018-07-20T06:29:40.764Z,32.20
2018-07-20T06:32:09.095Z,31.80
2018-07-20T06:34:43.783Z,30.70
2018-07-20T06:37:12.070Z,30.90
2018-07-20T06:39:40.540Z,31.20
2018-07-20T06:44:36.902Z,30.00
2018-07-20T06:47:05.293Z,30.20
2018-07-20T06:49:33.567Z,30.00
2018-07-20T06:52:01.819Z,30.00
2018-07-20T06:54:30.096Z,29.90
2018-07-20T06:56:58.597Z,29.50
2018-07-20T06:59:26.855Z,28.90
2018-07-20T07:01:55.063Z,28.80
2018-07-20T07:04:23.278Z,28.00
2018-07-20T07:06:51.619Z,28.30
2018-07-20T07:09:19.912Z,27.60
2018-07-20T07:11:48.130Z,26.70
2018-07-20T07:14:17.420Z,26.60
2018-07-20T07:16:45.659Z,26.50
2018-07-20T07:19:13.918Z,26.10
2018-07-20T07:21:42.191Z,25.70
2018-07-20T07:24:10.458Z,25.70
2018-07-20T07:26:38.697Z,25.50
2018-07-20T07:29:07.122Z,25.40
2018-07-20T07:31:35.419Z,24.80
2018-07-20T07:34:03.689Z,24.60
2018-07-20T07:36:31.941Z,24.70
2018-07-20T07:39:00.166Z,24.80
2018-07-20T07:41:28.442Z,24.20
2018-07-20T07:43:56.733Z,24.30
2018-07-20T07:46:24.954Z,23.90
2018-07-20T07:48:53.172Z,23.50
2018-07-20T07:51:21.501Z,23.20
2018-07-20T07:56:24.406Z,22.50
2018-07-20T07:58:52.829Z,23.40
2018-07-20T08:01:21.102Z,23.90
2018-07-20T08:03:49.345Z,23.70
2018-07-20T08:06:17.614Z,24.10
2018-07-20T08:08:46.036Z,24.00
2018-07-20T08:11:14.279Z,23.60
2018-07-20T08:13:42.480Z,23.70
2018-07-20T08:16:10.730Z,23.50
2018-07-20T08:18:38.964Z,23.30
2018-07-20T08:21:07.740Z,24.20
2018-07-20T08:23:36.207Z,23.10
2018-07-20T08:26:04.406Z,23.70
2018-07-20T08:28:33.163Z,23.40
2018-07-20T08:31:01.429Z,24.50
2018-07-20T08:33:29.665Z,24.70
2018-07-20T08:35:57.862Z,24.40
2018-07-20T08:38:26.150Z,23.90
2018-07-20T08:40:54.439Z,24.10
2018-07-20T08:43:22.671Z,22.80
2018-07-20T08:45:50.895Z,22.40
2018-07-20T08:48:19.863Z,22.30
2018-07-20T08:50:48.127Z,21.70
2018-07-20T08:53:16.342Z,21.60
2018-07-20T08:55:44.606Z,21.20
2018-07-20T08:58:12.980Z,20.10
2018-07-20T09:00:41.157Z,20.00
2018-07-20T09:03:09.437Z,20.90
2018-07-20T09:05:38.159Z,20.30
2018-07-20T09:08:06.505Z,20.50
2018-07-20T09:10:34.828Z,20.70
2018-07-20T09:13:03.069Z,20.90
2018-07-20T09:15:31.330Z,21.40
2018-07-20T09:17:59.554Z,20.50
2018-07-20T09:20:27.789Z,19.70
2018-07-20T09:25:24.058Z,19.20
2018-07-20T09:27:52.921Z,19.40
2018-07-20T09:30:21.238Z,19.00
2018-07-20T09:32:49.478Z,18.00
2018-07-20T09:35:17.690Z,17.80
2018-07-20T09:37:45.970Z,18.60
2018-07-20T09:40:14.294Z,18.90
2018-07-20T09:42:42.629Z,19.00
2018-07-20T09:45:10.871Z,18.10
2018-07-20T09:47:39.127Z,17.20
2018-07-20T09:50:07.435Z,16.00
2018-07-20T09:52:36.678Z,16.30
2018-07-20T09:55:05.133Z,16.00
2018-07-20T09:57:33.362Z,15.60
2018-07-20T10:00:01.783Z,16.10
2018-07-20T10:02:30.031Z,15.90
2018-07-20T10:04:58.330Z,15.80
2018-07-20T10:07:26.537Z,16.50
2018-07-20T10:09:54.735Z,16.60
2018-07-20T10:12:22.933Z,16.50
2018-07-20T10:14:51.205Z,16.30
2018-07-20T10:17:19.384Z,16.80
2018-07-20T10:19:48.170Z,16.60
2018-07-20T10:22:16.387Z,16.70
2018-07-20T10:24:44.616Z,17.10
2018-07-20T10:27:12.818Z,16.10
2018-07-20T10:32:09.029Z,15.10
2018-07-20T10:34:37.297Z,15.80
2018-07-20T10:37:05.699Z,16.10
2018-07-20T10:39:33.910Z,16.30
2018-07-20T10:42:02.129Z,16.10
2018-07-20T10:44:30.341Z,15.70
2018-07-20T10:46:58.627Z,16.10
2018-07-20T10:49:26.820Z,15.70
2018-07-20T10:51:55.049Z,16.10
2018-07-20T10:54:23.300Z,16.40
2018-07-20T10:56:51.588Z,15.70
2018-07-20T10:59:19.802Z,15.60
2018-07-20T11:01:48.046Z,15.90
2018-07-20T11:04:16.309Z,16.40
2018-07-20T11:06:44.524Z,17.50
2018-07-20T11:09:13.084Z,18.10
2018-07-20T11:11:41.285Z,18.60
2018-07-20T11:14:09.696Z,19.20
2018-07-20T11:16:38.343Z,19.40
2018-07-20T11:19:06.545Z,19.50
2018-07-20T11:21:34.758Z,19.60
2018-07-20T11:24:03.014Z,19.50
2018-07-20T11:26:31.285Z,19.80
2018-07-20T11:28:59.633Z,19.50
2018-07-20T11:31:27.788Z,19.50
2018-07-20T11:33:56.069Z,19.60
2018-07-20T11:36:24.273Z,19.70
2018-07-20T11:38:53.539Z,19.60
2018-07-20T11:41:21.764Z,19.50
2018-07-20T11:43:50.145Z,18.80
2018-07-20T11:46:18.400Z,19.70
2018-07-20T11:48:46.669Z,20.00
2018-07-20T11:51:14.889Z,20.40
2018-07-20T11:53:43.062Z,19.70
2018-07-20T11:56:12.039Z,19.80
2018-07-20T11:58:40.373Z,19.10
2018-07-20T12:01:08.825Z,19.80
2018-07-20T12:03:36.996Z,20.10
2018-07-20T12:06:05.326Z,20.10
2018-07-20T12:08:33.543Z,20.20
2018-07-20T12:11:01.754Z,20.90
2018-07-20T12:13:29.979Z,20.50
2018-07-20T12:15:58.241Z,20.20
2018-07-20T12:18:26.485Z,20.80
2018-07-20T12:20:54.657Z,20.50
2018-07-20T12:23:22.855Z,20.20
2018-07-20T12:25:51.170Z,20.20
2018-07-20T12:28:19.538Z,20.90
2018-07-20T12:30:47.974Z,20.00
2018-07-20T12:33:16.161Z,20.00
2018-07-20T12:35:45.341Z,20.00
2018-07-20T12:38:13.501Z,19.20
2018-07-20T12:40:41.702Z,19.50
2018-07-20T12:43:10.202Z,19.80
2018-07-20T12:45:38.423Z,20.30
2018-07-20T12:48:06.661Z,19.80
2018-07-20T12:50:34.885Z,20.50
2018-07-20T12:53:03.067Z,20.60
2018-07-20T12:55:31.241Z,20.90
2018-07-20T12:57:59.417Z,20.60
2018-07-20T13:00:27.672Z,20.40
2018-07-20T13:02:55.893Z,20.00
2018-07-20T13:05:24.070Z,20.10
2018-07-20T13:07:52.262Z,20.10
2018-07-20T13:10:20.416Z,20.10
2018-07-20T13:12:48.589Z,20.60
2018-07-20T13:15:17.177Z,20.10
2018-07-20T13:17:45.414Z,19.60
2018-07-20T13:20:13.693Z,20.20
2018-07-20T13:22:42.005Z,20.70
2018-07-20T13:25:10.169Z,20.80
2018-07-20T13:27:38.335Z,21.40
2018-07-20T13:30:07.711Z,21.50
2018-07-20T13:32:36.082Z,21.00
2018-07-20T13:35:04.398Z,21.20
2018-07-20T13:37:33.593Z,21.50
2018-07-20T13:40:02.142Z,20.90
2018-07-20T13:42:30.445Z,20.70
2018-07-20T13:44:58.612Z,20.30
2018-07-20T13:47:26.869Z,20.40
2018-07-20T13:49:55.066Z,20.40
2018-07-20T13:52:23.786Z,20.20
2018-07-20T13:54:52.050Z,19.90
2018-07-20T13:57:20.223Z,20.00
2018-07-20T13:59:48.487Z,20.00
2018-07-20T14:02:16.752Z,20.00
2018-07-20T14:04:44.923Z,20.10
2018-07-20T14:07:13.123Z,20.20
2018-07-20T14:09:41.366Z,19.80
2018-07-20T14:12:09.634Z,20.10
2018-07-20T14:14:37.880Z,19.90
2018-07-20T14:17:06.218Z,19.90
2018-07-20T14:19:35.332Z,19.80
2018-07-20T14:22:03.651Z,19.50
2018-07-20T14:24:31.864Z,20.00
2018-07-20T14:27:00.183Z,19.80
2018-07-20T14:29:28.481Z,20.40
2018-07-20T14:31:56.747Z,21.00
2018-07-20T14:34:24.973Z,21.30
2018-07-20T14:36:53.174Z,21.50
2018-07-20T14:39:21.442Z,21.60
2018-07-20T14:41:49.702Z,21.70
2018-07-20T14:44:17.926Z,21.50
2018-07-20T14:46:46.177Z,21.70
2018-07-20T14:49:14.406Z,22.00
2018-07-20T14:51:42.594Z,22.20
2018-07-20T14:54:10.877Z,22.50
2018-07-20T14:56:39.048Z,22.30
2018-07-20T15:01:35.410Z,23.00
2018-07-20T15:04:03.661Z,22.90
2018-07-20T15:06:32.730Z,22.90
2018-07-20T15:09:00.910Z,22.90
2018-07-20T15:11:29.172Z,23.10
2018-07-20T15:13:58.406Z,23.80
2018-07-20T15:16:26.684Z,23.80
2018-07-20T15:18:54.897Z,23.80
2018-07-20T15:21:23.167Z,23.00
2018-07-20T15:23:51.376Z,23.50
2018-07-20T15:26:19.596Z,23.20
2018-07-20T15:28:47.792Z,23.40
2018-07-20T15:33:43.972Z,24.10
2018-07-20T15:36:12.235Z,23.80
2018-07-20T15:38:40.442Z,23.90
2018-07-20T15:41:08.896Z,23.70
2018-07-20T15:43:37.709Z,23.80
2018-07-20T15:46:06.851Z,23.60
2018-07-20T15:48:35.134Z,23.80
2018-07-20T15:51:03.293Z,23.60
2018-07-20T15:53:38.579Z,23.20
2018-07-20T15:55:59.938Z,23.70
2018-07-20T15:58:28.722Z,23.40
2018-07-20T16:00:56.910Z,23.50
2018-07-20T16:03:25.168Z,23.30
2018-07-20T16:05:53.505Z,23.40
2018-07-20T16:08:21.667Z,23.70
2018-07-20T16:10:49.894Z,23.80
2018-07-20T16:13:18.175Z,23.20
2018-07-20T16:15:46.392Z,22.70
2018-07-20T16:18:14.667Z,23.20
2018-07-20T16:20:43.789Z,22.90
2018-07-20T16:23:12.084Z,23.10
2018-07-20T16:25:40.331Z,23.60
2018-07-20T16:28:08.567Z,23.70
2018-07-20T16:30:36.764Z,23.60
2018-07-20T16:33:05.008Z,23.60
2018-07-20T16:35:33.193Z,23.60
2018-07-20T16:38:01.410Z,23.70
2018-07-20T16:40:29.577Z,23.90
2018-07-20T16:42:57.911Z,23.90
2018-07-20T16:45:27.137Z,23.70
2018-07-20T16:47:55.459Z,24.00
2018-07-20T16:50:23.691Z,24.20
2018-07-20T16:52:51.887Z,23.90
2018-07-20T16:55:20.192Z,24.10
2018-07-20T16:57:48.423Z,24.50
2018-07-20T17:00:16.795Z,24.30
2018-07-20T17:02:45.010Z,24.20
2018-07-20T17:05:13.246Z,24.40
2018-07-20T17:07:41.462Z,24.90
2018-07-20T17:10:09.706Z,25.40
2018-07-20T17:12:37.969Z,25.70
2018-07-20T17:15:06.485Z,25.60
2018-07-20T17:17:34.664Z,25.90
2018-07-20T17:20:02.951Z,25.90
2018-07-20T17:22:31.158Z,26.00
2018-07-20T17:25:00.291Z,25.90
2018-07-20T17:27:28.703Z,25.80
2018-07-20T17:29:56.992Z,25.20
2018-07-20T17:32:25.753Z,25.40
2018-07-20T17:34:54.278Z,25.70
2018-07-20T17:37:22.498Z,25.70
2018-07-20T17:39:50.770Z,25.80
2018-07-20T17:42:19.094Z,25.70
2018-07-20T17:44:47.359Z,25.20
2018-07-20T17:47:22.454Z,25.40
2018-07-20T17:49:50.665Z,25.20
2018-07-20T17:52:18.930Z,25.20
2018-07-20T17:54:47.312Z,25.40
2018-07-20T17:57:15.589Z,25.10
2018-07-20T17:59:43.775Z,25.30
2018-07-20T18:02:12.161Z,25.40
2018-07-20T18:04:40.612Z,25.20
2018-07-20T18:07:08.797Z,25.40
2018-07-20T18:09:36.968Z,25.50
2018-07-20T18:12:05.150Z,25.10
2018-07-20T18:14:33.996Z,25.00
2018-07-20T18:17:02.196Z,24.50
2018-07-20T18:19:30.386Z,24.70
2018-07-20T18:21:58.562Z,25.00
2018-07-20T18:24:26.840Z,24.70
2018-07-20T18:26:55.159Z,24.70
2018-07-20T18:29:23.347Z,25.10
2018-07-20T18:31:51.567Z,25.20
2018-07-20T18:34:19.808Z,25.20
2018-07-20T18:36:48.100Z,26.50
2018-07-20T18:39:16.370Z,28.50
2018-07-20T18:41:44.560Z,27.60
2018-07-20T18:44:12.746Z,27.40
2018-07-20T18:46:41.000Z,28.50
2018-07-20T18:49:09.285Z,27.90
2018-07-20T18:51:38.212Z,27.90
2018-07-20T18:54:06.568Z,28.10
2018-07-20T18:56:34.748Z,27.60
2018-07-20T18:59:02.905Z,28.00
2018-07-20T19:01:31.181Z,27.90
2018-07-20T19:03:59.437Z,26.40
2018-07-20T19:06:27.697Z,27.80
2018-07-20T19:08:56.074Z,28.10
2018-07-20T19:11:24.286Z,27.30
2018-07-20T19:13:52.578Z,26.70
2018-07-20T19:16:21.041Z,27.00
2018-07-20T19:18:49.312Z,27.50
2018-07-20T19:21:17.473Z,28.60
2018-07-20T19:23:45.846Z,28.40
2018-07-20T19:26:14.167Z,27.80
2018-07-20T19:28:42.874Z,29.30
2018-07-20T19:31:11.206Z,29.80
2018-07-20T19:33:39.491Z,30.70
2018-07-20T19:36:07.886Z,31.60
2018-07-20T19:38:36.191Z,32.10
2018-07-20T19:41:04.613Z,33.40
2018-07-20T19:43:33.483Z,34.20
2018-07-20T19:46:01.841Z,34.80
2018-07-20T19:48:30.109Z,34.40
2018-07-20T19:50:58.594Z,34.50
2018-07-20T19:53:26.820Z,34.60
2018-07-20T19:55:55.116Z,34.80
2018-07-20T19:58:23.381Z,34.90
2018-07-20T20:00:51.720Z,34.80
2018-07-20T20:03:19.977Z,34.40
2018-07-20T20:05:48.309Z,34.50
2018-07-20T20:08:16.873Z,34.40
2018-07-20T20:10:45.103Z,38.70
2018-07-20T20:13:13.974Z,39.60
2018-07-20T20:15:42.554Z,40.90
2018-07-20T20:18:10.721Z,41.70
2018-07-20T20:20:39.997Z,42.60
2018-07-20T20:23:08.334Z,42.80
2018-07-20T20:25:36.809Z,42.90
2018-07-20T20:28:05.199Z,43.00
2018-07-20T20:30:33.432Z,44.10
2018-07-20T20:33:01.842Z,43.60
2018-07-20T20:35:30.888Z,44.40
2018-07-20T20:37:59.266Z,45.00
2018-07-20T20:40:28.877Z,44.90
2018-07-20T20:42:57.150Z,45.20
2018-07-20T20:45:25.337Z,44.90
2018-07-20T20:47:53.765Z,44.90
2018-07-20T20:50:22.562Z,45.00
2018-07-20T20:52:50.836Z,44.80
2018-07-20T20:55:19.091Z,45.10
2018-07-20T20:57:47.346Z,45.60
2018-07-20T21:00:15.551Z,47.30
2018-07-20T21:05:12.837Z,49.50
2018-07-20T21:07:41.117Z,49.50
2018-07-20T21:10:09.403Z,50.50
2018-07-20T21:12:37.637Z,49.80
2018-07-20T21:15:06.544Z,50.10
2018-07-20T21:17:35.610Z,50.30
2018-07-20T21:20:04.743Z,49.50
2018-07-20T21:22:33.016Z,49.70
2018-07-20T21:25:03.270Z,49.80
2018-07-20T21:27:31.605Z,50.10
2018-07-20T21:30:00.863Z,50.70
2018-07-20T21:32:29.102Z,51.80
2018-07-20T21:34:57.374Z,52.30
2018-07-20T21:37:25.553Z,52.90
2018-07-20T21:39:53.824Z,53.30
2018-07-20T21:42:22.051Z,52.20
2018-07-20T21:44:50.286Z,50.20
2018-07-20T21:47:19.050Z,50.30
2018-07-20T21:49:47.213Z,49.70
2018-07-20T21:52:15.584Z,49.70
2018-07-20T21:54:43.889Z,49.70
2018-07-20T21:57:12.373Z,49.80
2018-07-20T21:59:41.293Z,49.90
2018-07-20T22:04:37.614Z,49.10
2018-07-20T22:07:06.521Z,48.20
2018-07-20T22:09:34.801Z,48.00
2018-07-20T22:12:03.125Z,48.70
2018-07-20T22:14:31.338Z,49.10
2018-07-20T22:16:59.581Z,49.00
2018-07-20T22:19:27.789Z,48.20
2018-07-20T22:21:56.041Z,47.80
2018-07-20T22:24:24.309Z,47.30
2018-07-20T22:26:52.511Z,46.50
2018-07-20T22:29:20.810Z,47.00
2018-07-20T22:31:49.103Z,47.00
2018-07-20T22:34:17.326Z,46.70
2018-07-20T22:36:45.577Z,47.10
2018-07-20T22:39:13.957Z,46.80
2018-07-20T22:41:42.293Z,46.80
2018-07-20T22:44:10.558Z,47.00
2018-07-20T22:46:38.839Z,47.70
2018-07-20T22:49:07.117Z,48.30
2018-07-20T22:51:35.337Z,48.20
2018-07-20T22:54:03.563Z,48.30
2018-07-20T22:56:31.832Z,48.50
2018-07-20T22:58:59.990Z,48.60
2018-07-20T23:01:28.213Z,48.60
2018-07-20T23:03:56.475Z,48.90
2018-07-20T23:06:24.788Z,48.50
2018-07-20T23:08:52.993Z,48.50
2018-07-20T23:11:21.197Z,48.70
2018-07-20T23:13:49.524Z,49.30
2018-07-20T23:16:17.742Z,49.60
2018-07-20T23:18:45.973Z,49.60
2018-07-20T23:21:14.300Z,49.50
2018-07-20T23:23:42.574Z,50.20
2018-07-20T23:26:10.850Z,50.50
2018-07-20T23:28:39.098Z,50.60
2018-07-20T23:31:07.298Z,51.40
2018-07-20T23:33:35.573Z,51.40
2018-07-20T23:36:03.978Z,51.70
2018-07-20T23:38:32.345Z,51.50
2018-07-20T23:41:00.534Z,52.60
2018-07-20T23:43:28.786Z,52.70
2018-07-20T23:45:57.119Z,53.40
2018-07-20T23:48:25.315Z,54.40
2018-07-20T23:50:53.512Z,53.90
2018-07-20T23:53:21.704Z,54.20
2018-07-20T23:55:50.029Z,55.20
2018-07-20T23:58:18.213Z,54.70
